Etusivu
METAR-TAF:

METAR-TAF

Lentoasemat :

Ljungbyhed, Ruotsi

Leveyspiiri: 56-04N, Pituuspiiri: 013-12E, korkeus merenpinnasta: 43 m

Tämänhetkinen sää

Tämä raportti tehtiin 30 minuuttia sitten, kello 11.20 UTC
Tuuli 6 kn lännestä
Lämpötila 5°C
Kosteus 100%
Ilmanpaine 1026 hPa
Näkyvyys: 1500 m
utua

METAR: ESTL 231120Z AUTO 26006KT 1500 BR FEW003/// OVC005/// 05/05 Q1026

Aika: 12:50 (11:50 UTC)

Sääennuste

Tämä raportti tehtiin 48 minuuttia sitten, kello 11.02 UTC
Ennuste voimassa 23. päivästä klo 12 UTC - 23. päivään klo 16 UTC
Tuuli 12 kn lännestä
Näkyvyys: 5000 m
Hajonneita pilviä 500 ft:n korkeudessa
heikkoa sadetta, tihkusadetta, utua
Ajoittain
23. päivästä klo 12 UTC - 23. päivään klo 16 UTC
Näkyvyys: 1200 m
Hajonneita pilviä 200 ft:n korkeudessa

TAF: ESTL 231102Z 2312/2316 26012KT 5000 -RADZ BR BKN005 TEMPO 2312/2316 1200 BKN002

Säähavainnot ja -ennusteet yli 4000 lentoasemalta (METAR- ja TAF-raportit).

Käytössä olevat sääasemat on merkitty karttaan keltaisilla ja punaisilla pisteillä.

Aseta hiiri pisteen päälle nähdäksesi sääaseman nimen.

Klikkaa sitten nähdäksesi säähavainnot ja -ennusteet.

Kartan vaihtaminen: klikkaa mustalla rastilla varustettuja vihreitä pisteitä, niin voit zoomata sisään; viivalla varustettua vihreää pistettä, niin voit zoomata ulos tai vihreitä nuolia, niin pääset viereisille kartoille.


METAR-TAF: